Flight Track Log - Related Links

Times and Time Zones

All times are in EDT time to prevent confusion due to time zone crossing. See the EJA729 flight status page for this flight to view local times or setup timezone preferences in your user account.

Time Position Orientation Groundspeed Altitude Reporting Facility
EDT Latitude Longitude Course Direction KTS MPH feet Rate Location/Type
Thu 09:39:15 AM 39.5167 -104.8667 270° West 238 274 7,900  Level Denver TRACON
Thu 09:40:09 AM 39.5167 -104.9333 270° West 245 282 8,900 2,316 Climbing Denver TRACON
Thu 09:41:09 AM 39.5500 -105.0000 303° West 247 284 12,300 3,582 Climbing Denver TRACON
Thu 09:42:23 AM 39.5972 -105.1069 300° West 277 319 16,900 3,467 Climbing Denver Center
Thu 09:43:24 AM 39.6181 -105.2089 285° West 295 339 20,100 2,902 Climbing Denver Center
Thu 09:44:25 AM 39.6383 -105.3264 283° West 331 381 22,800 1,415 Climbing Denver Center
Thu 09:45:27 AM 39.6644 -105.4789 283° West 414 476 23,000 98 Climbing Denver Center
Thu 09:46:28 AM 39.6919 -105.6386 283° West 450 518 23,000  Level Denver Center
Thu 09:47:29 AM 39.6828 -105.8028 266° West 455 524 23,000 -146 Level Denver Center
Thu 09:48:31 AM 39.6672 -105.9553 262° West 450 518 22,700 -683 Descending Denver Center
Thu 09:49:32 AM 39.6478 -106.1219 261° West 465 535 21,600 -1,131 Descending Denver Center
Thu 09:50:33 AM 39.6311 -106.2808 262° West 439 505 20,400 -780 Descending Denver Center
Thu 09:51:35 AM 39.5919 -106.4200 250° West 407 468 20,000 -195 Descending Denver Center
Thu 09:52:36 AM 39.5492 -106.5542 248° West 382 440 20,000 -246 Level Denver Center
Thu 09:53:37 AM 39.5017 -106.6978 247° West 389 448 19,500 -1,122 Descending Denver Center
Thu 09:54:39 AM 39.4644 -106.8128 247° West 364 419 17,700 -1,805 Descending Denver Center
Thu 09:55:40 AM 39.4408 -106.9369 256° West 346 398 15,800 -1,561 Descending Denver Center
Thu 09:56:42 AM 39.4719 -107.0408 291° West 345 397 14,500 -1,171 Descending Denver Center
Thu 09:57:43 AM 39.5008 -107.1542 288° West 331 381 13,400 -780 Descending Denver Center
Thu 09:58:45 AM 39.5311 -107.2803 287° West 329 379 12,900 -1,073 Descending Denver Center
Thu 09:59:46 AM 39.5333 -107.3822 272° West 294 338 11,200 -1,672 Descending Denver Center

Login

Don't have an account? Register now (free) for customized features, flight alerts, and more!